createdAt,value
2023-04-18T00:01:52.087Z,97552.72
2023-04-18T00:04:19.249Z,97551.03
2023-04-18T00:06:47.466Z,97562.47
2023-04-18T00:09:14.344Z,97562.63
2023-04-18T00:11:41.489Z,97565.13
2023-04-18T00:14:08.765Z,97564.44
2023-04-18T00:16:36.443Z,97563.59
2023-04-18T00:19:04.966Z,97561.91
2023-04-18T00:21:32.264Z,97541.84
2023-04-18T00:23:58.978Z,97555.09
2023-04-18T00:26:26.545Z,97556.91
2023-04-18T00:28:53.245Z,97555.22
2023-04-18T00:31:20.052Z,97551.88
2023-04-18T00:33:46.863Z,97549.94
2023-04-18T00:36:13.663Z,97556.22
2023-04-18T00:38:40.432Z,97550.06
2023-04-18T00:41:07.160Z,97541.28
2023-04-18T00:43:35.286Z,97547.56
2023-04-18T00:46:02.158Z,97544.09
2023-04-18T00:48:31.434Z,97542.56
2023-04-18T00:50:58.371Z,97546.19
2023-04-18T00:53:25.457Z,97545.19
2023-04-18T00:55:55.214Z,97541.56
2023-04-18T00:58:22.154Z,97553.16
2023-04-18T01:00:48.884Z,97556.78
2023-04-18T01:03:18.573Z,97555.25
2023-04-18T01:05:45.816Z,97554.41
2023-04-18T01:08:13.052Z,97547.44
2023-04-18T01:10:39.986Z,97549.09
2023-04-18T01:13:17.266Z,97542.97
2023-04-18T01:15:45.554Z,97544.94
2023-04-18T01:18:13.499Z,97537.13
2023-04-18T01:20:44.070Z,97541.44
2023-04-18T01:23:10.972Z,97536.59
2023-04-18T01:25:38.289Z,97541.75
2023-04-18T01:28:06.654Z,97542.72
2023-04-18T01:30:34.516Z,97546.34
2023-04-18T01:33:02.363Z,97547.19
2023-04-18T01:35:29.273Z,97544.69
2023-04-18T01:37:56.136Z,97549.00
2023-04-18T01:40:23.275Z,97543.00
2023-04-18T01:42:50.704Z,97549.28
2023-04-18T01:45:18.861Z,97548.31
2023-04-18T01:47:46.058Z,97543.16
2023-04-18T01:50:13.684Z,97544.97
2023-04-18T01:52:40.509Z,97546.06
2023-04-18T01:55:07.646Z,97533.69
2023-04-18T01:57:36.899Z,97530.06
2023-04-18T02:00:08.262Z,97531.88
2023-04-18T02:02:35.213Z,97531.03
2023-04-18T02:05:02.154Z,97533.81
2023-04-18T02:07:30.189Z,97533.81
2023-04-18T02:09:56.918Z,97533.25
2023-04-18T02:12:23.718Z,97536.88
2023-04-18T02:14:54.138Z,97530.47
2023-04-18T02:17:23.698Z,97527.97
2023-04-18T02:19:53.654Z,97533.53
2023-04-18T02:22:20.426Z,97539.53
2023-04-18T02:24:47.194Z,97534.66
2023-04-18T02:27:13.987Z,97534.66
2023-04-18T02:29:40.813Z,97531.03
2023-04-18T02:32:07.680Z,97533.81
2023-04-18T02:34:34.753Z,97539.94
2023-04-18T02:37:01.530Z,97536.59
2023-04-18T02:39:28.326Z,97533.97
2023-04-18T02:41:55.167Z,97537.56
2023-04-18T02:44:21.887Z,97541.06
2023-04-18T02:46:48.587Z,97533.25
2023-04-18T02:49:15.379Z,97534.09
2023-04-18T02:51:42.173Z,97540.22
2023-04-18T02:54:08.924Z,97533.53
2023-04-18T02:56:40.110Z,97540.63
2023-04-18T02:59:07.422Z,97538.81
2023-04-18T03:01:34.553Z,97538.00
2023-04-18T03:04:01.477Z,97540.78
2023-04-18T03:06:28.311Z,97542.72
2023-04-18T03:08:55.872Z,97539.09
2023-04-18T03:11:22.962Z,97543.56
2023-04-18T03:13:49.683Z,97540.09
2023-04-18T03:16:17.011Z,97537.44
2023-04-18T03:18:44.007Z,97541.19
2023-04-18T03:21:11.579Z,97541.91
2023-04-18T03:23:38.503Z,97540.50
2023-04-18T03:26:09.234Z,97538.69
2023-04-18T03:28:35.996Z,97534.94
2023-04-18T03:31:02.812Z,97530.88
2023-04-18T03:33:29.578Z,97538.13
2023-04-18T03:35:56.416Z,97537.16
2023-04-18T03:38:23.309Z,97536.31
2023-04-18T03:40:50.141Z,97527.69
2023-04-18T03:43:16.935Z,97532.13
2023-04-18T03:45:44.444Z,97535.75
2023-04-18T03:48:11.727Z,97534.91
2023-04-18T03:50:38.477Z,97530.47
2023-04-18T03:53:05.205Z,97531.44
2023-04-18T03:55:32.097Z,97535.03
2023-04-18T03:57:59.409Z,97529.72
2023-04-18T04:00:27.013Z,97529.31
2023-04-18T04:02:53.987Z,97530.84
2023-04-18T04:05:20.912Z,97529.03
2023-04-18T04:07:47.866Z,97536.00
2023-04-18T04:10:14.710Z,97540.72
2023-04-18T04:12:41.465Z,97539.06
2023-04-18T04:15:08.879Z,97538.22
2023-04-18T04:17:35.676Z,97537.53
2023-04-18T04:20:02.742Z,97547.13
2023-04-18T04:22:29.465Z,97546.16
2023-04-18T04:24:57.918Z,97545.19
2023-04-18T04:27:25.298Z,97539.19
2023-04-18T04:29:54.933Z,97542.09
2023-04-18T04:32:21.885Z,97556.03
2023-04-18T04:34:49.631Z,97551.72
2023-04-18T04:37:18.895Z,97554.38
2023-04-18T04:39:46.333Z,97563.28
2023-04-18T04:42:13.622Z,97557.16
2023-04-18T04:44:41.853Z,97555.34
2023-04-18T04:47:08.653Z,97551.03
2023-04-18T04:49:35.460Z,97563.53
2023-04-18T04:52:03.154Z,97553.81
2023-04-18T04:54:30.290Z,97557.16
2023-04-18T04:56:57.020Z,97561.59
2023-04-18T04:59:23.881Z,97567.03
2023-04-18T05:01:50.756Z,97558.13
2023-04-18T05:04:18.554Z,97568.84
2023-04-18T05:06:46.355Z,97573.28
2023-04-18T05:09:13.672Z,97575.09
2023-04-18T05:11:40.550Z,97569.81
2023-04-18T05:14:07.611Z,97572.31
2023-04-18T05:16:34.448Z,97576.78
2023-04-18T05:19:01.373Z,97577.47
2023-04-18T05:21:29.146Z,97574.00
2023-04-18T05:23:58.412Z,97574.00
2023-04-18T05:26:25.278Z,97577.47
2023-04-18T05:28:52.103Z,97592.38
2023-04-18T05:31:19.038Z,97585.41
2023-04-18T05:33:45.809Z,97585.13
2023-04-18T05:36:12.703Z,97595.59
2023-04-18T05:38:39.411Z,97587.66
2023-04-18T05:41:06.242Z,97585.84
2023-04-18T05:43:33.002Z,97588.34
2023-04-18T05:45:59.801Z,97595.31
2023-04-18T05:48:27.714Z,97584.72
2023-04-18T05:50:54.567Z,97590.03
2023-04-18T05:53:21.535Z,97594.09
2023-04-18T05:55:49.091Z,97587.94
2023-04-18T05:58:16.288Z,97592.28
2023-04-18T06:00:43.497Z,97592.28
2023-04-18T06:03:11.297Z,97598.41
2023-04-18T06:05:38.634Z,97597.31
2023-04-18T06:08:05.475Z,97605.25
2023-04-18T06:10:32.218Z,97607.06
2023-04-18T06:12:59.104Z,97612.22
2023-04-18T06:15:25.999Z,97604.97
2023-04-18T06:17:52.812Z,97611.81
2023-04-18T06:20:19.936Z,97610.13
2023-04-18T06:22:46.752Z,97610.00
2023-04-18T06:25:13.671Z,97607.34
2023-04-18T06:27:40.705Z,97609.03
2023-04-18T06:30:08.572Z,97611.53
2023-04-18T06:32:35.786Z,97605.41
2023-04-18T06:35:02.660Z,97608.75
2023-04-18T06:37:29.636Z,97621.00
2023-04-18T06:39:56.363Z,97617.25
2023-04-18T06:42:23.104Z,97614.75
2023-04-18T06:44:50.299Z,97621.56
2023-04-18T06:47:17.371Z,97607.38
2023-04-18T06:49:44.086Z,97607.38
2023-04-18T06:52:10.904Z,97606.97
2023-04-18T06:54:37.614Z,97612.13
2023-04-18T06:57:04.622Z,97607.94
2023-04-18T06:59:31.427Z,97612.94
2023-04-18T07:01:58.311Z,97611.84
2023-04-18T07:04:25.340Z,97609.06
2023-04-18T07:06:52.433Z,97616.84
2023-04-18T07:09:19.591Z,97616.28
2023-04-18T07:11:46.467Z,97618.81
2023-04-18T07:14:13.464Z,97618.94
2023-04-18T07:16:40.548Z,97627.03
2023-04-18T07:19:07.396Z,97615.75
2023-04-18T07:21:34.311Z,97618.41
2023-04-18T07:24:01.049Z,97625.50
2023-04-18T07:26:27.829Z,97624.25
2023-04-18T07:28:54.775Z,97619.78
2023-04-18T07:31:21.498Z,97626.63
2023-04-18T07:33:48.285Z,97619.78
2023-04-18T07:36:15.056Z,97621.59
2023-04-18T07:38:41.980Z,97623.28
2023-04-18T07:41:08.731Z,97619.94
2023-04-18T07:43:35.607Z,97622.03
2023-04-18T07:46:02.569Z,97620.03
2023-04-18T07:48:29.317Z,97618.78
2023-04-18T07:50:56.288Z,97624.38
2023-04-18T07:53:23.074Z,97620.75
2023-04-18T07:55:50.416Z,97624.38
2023-04-18T07:58:17.718Z,97621.72
2023-04-18T08:00:45.138Z,97625.06
2023-04-18T08:03:13.031Z,97622.41
2023-04-18T08:05:41.357Z,97620.59
2023-04-18T08:08:10.198Z,97623.81
2023-04-18T08:10:37.472Z,97624.50
2023-04-18T08:13:04.255Z,97631.63
2023-04-18T08:15:32.989Z,97630.22
2023-04-18T08:18:01.141Z,97626.47
2023-04-18T08:20:29.586Z,97628.28
2023-04-18T08:23:07.546Z,97630.09
2023-04-18T08:26:11.122Z,97638.16
2023-04-18T08:28:37.829Z,97627.84
2023-04-18T08:31:04.758Z,97628.00
2023-04-18T08:33:31.571Z,97627.28
2023-04-18T08:35:58.338Z,97624.22
2023-04-18T08:38:25.144Z,97635.25
2023-04-18T08:40:51.972Z,97629.38
2023-04-18T08:43:18.745Z,97630.91
2023-04-18T08:45:46.234Z,97635.78
2023-04-18T08:48:14.634Z,97635.78
2023-04-18T08:50:42.560Z,97643.03
2023-04-18T08:53:10.131Z,97648.63
2023-04-18T08:55:37.677Z,97654.75
2023-04-18T08:58:08.179Z,97655.47
2023-04-18T09:00:35.411Z,97654.47
2023-04-18T09:03:04.075Z,97661.03
2023-04-18T09:05:31.061Z,97662.56
2023-04-18T09:07:57.854Z,97656.16
2023-04-18T09:10:29.096Z,97665.63
2023-04-18T09:12:57.720Z,97668.16
2023-04-18T09:15:29.418Z,97665.94
2023-04-18T09:17:58.936Z,97650.88
2023-04-18T09:20:38.065Z,97662.03
2023-04-18T09:23:11.062Z,97660.34
2023-04-18T09:25:49.318Z,97663.97
2023-04-18T09:28:29.099Z,97662.03
2023-04-18T09:30:58.487Z,97661.19
2023-04-18T09:33:33.147Z,97663.41
2023-04-18T09:36:24.169Z,97663.41
2023-04-18T09:38:55.547Z,97660.06
2023-04-18T09:41:23.690Z,97660.34
2023-04-18T09:43:50.613Z,97660.34
2023-04-18T09:46:21.899Z,97663.16
2023-04-18T09:48:48.727Z,97657.00
2023-04-18T09:51:16.858Z,97659.53
2023-04-18T09:53:45.160Z,97652.53
2023-04-18T09:56:26.329Z,97655.88
2023-04-18T09:58:57.416Z,97652.25
2023-04-18T10:01:28.718Z,97659.25
2023-04-18T10:03:57.399Z,97643.63
2023-04-18T10:06:27.512Z,97651.00
2023-04-18T10:08:55.259Z,97652.00
2023-04-18T10:11:23.906Z,97651.00
2023-04-18T10:13:56.011Z,97646.41
2023-04-18T10:16:23.484Z,97646.97
2023-04-18T10:18:51.459Z,97648.50
2023-04-18T10:21:18.250Z,97646.09
2023-04-18T10:23:48.926Z,97650.94
2023-04-18T10:26:16.631Z,97651.38
2023-04-18T10:28:57.390Z,97654.84
2023-04-18T10:31:26.148Z,97654.31
2023-04-18T10:34:07.025Z,97647.88
2023-04-18T10:36:33.896Z,97646.59
2023-04-18T10:39:30.123Z,97648.28
2023-04-18T10:41:56.838Z,97649.97
2023-04-18T10:44:24.016Z,97648.59
2023-04-18T10:46:51.268Z,97649.28
2023-04-18T10:49:23.264Z,97637.13
2023-04-18T10:51:56.287Z,97638.53
2023-04-18T10:54:30.875Z,97644.13
2023-04-18T10:57:03.249Z,97637.41
2023-04-18T10:59:31.987Z,97632.66
2023-04-18T11:02:29.958Z,97631.94
2023-04-18T11:04:59.819Z,97630.28
2023-04-18T11:07:49.101Z,97627.63
2023-04-18T11:10:24.698Z,97634.03
2023-04-18T11:12:52.373Z,97629.41
2023-04-18T11:15:23.950Z,97619.59
2023-04-18T11:18:02.532Z,97626.00
2023-04-18T11:20:39.850Z,97627.81
2023-04-18T11:23:25.079Z,97619.16
2023-04-18T11:25:56.535Z,97616.91
2023-04-18T11:28:26.509Z,97618.03
2023-04-18T11:30:59.707Z,97617.34
2023-04-18T11:33:28.578Z,97613.84
2023-04-18T11:35:58.901Z,97618.72
2023-04-18T11:38:30.980Z,97606.84
2023-04-18T11:40:57.841Z,97619.38
2023-04-18T11:43:25.673Z,97611.25
2023-04-18T11:45:59.211Z,97616.72
2023-04-18T11:48:43.645Z,97602.31
2023-04-18T11:51:38.876Z,97612.53
2023-04-18T11:54:06.085Z,97616.03
2023-04-18T11:56:35.315Z,97620.41
2023-04-18T11:59:10.153Z,97614.69
2023-04-18T12:01:36.975Z,97619.59
2023-04-18T12:04:06.017Z,97616.53
2023-04-18T12:06:53.934Z,97611.25
2023-04-18T12:09:22.695Z,97618.06
2023-04-18T12:12:00.313Z,97619.88
2023-04-18T12:14:28.469Z,97616.94
2023-04-18T12:16:55.247Z,97626.56
2023-04-18T12:19:29.878Z,97621.28
2023-04-18T12:22:01.282Z,97621.28
2023-04-18T12:24:32.415Z,97620.72
2023-04-18T12:26:59.772Z,97620.88
2023-04-18T12:29:28.240Z,97619.88
2023-04-18T12:31:55.785Z,97618.22
2023-04-18T12:34:22.654Z,97624.91
2023-04-18T12:36:49.493Z,97609.69
2023-04-18T12:39:16.325Z,97614.84
2023-04-18T12:41:44.063Z,97622.50
2023-04-18T12:44:10.803Z,97614.41
2023-04-18T12:46:37.632Z,97618.56
2023-04-18T12:49:04.492Z,97624.72
2023-04-18T12:51:31.670Z,97621.38
2023-04-18T12:53:58.550Z,97619.41
2023-04-18T12:56:25.518Z,97615.78
2023-04-18T12:58:52.989Z,97615.50
2023-04-18T13:01:20.133Z,97611.16
2023-04-18T13:03:53.408Z,97607.53
2023-04-18T13:06:26.941Z,97614.66
2023-04-18T13:08:53.887Z,97616.63
2023-04-18T13:11:22.750Z,97619.41
2023-04-18T13:13:52.023Z,97619.56
2023-04-18T13:16:18.882Z,97618.72
2023-04-18T13:18:45.646Z,97617.75
2023-04-18T13:21:12.506Z,97620.41
2023-04-18T13:23:39.233Z,97610.47
2023-04-18T13:26:06.074Z,97610.34
2023-04-18T13:28:32.917Z,97620.25
2023-04-18T13:30:59.908Z,97614.41
2023-04-18T13:33:26.678Z,97608.56
2023-04-18T13:35:53.494Z,97607.03
2023-04-18T13:38:20.469Z,97604.53
2023-04-18T13:40:47.195Z,97615.97
2023-04-18T13:43:15.616Z,97607.16
2023-04-18T13:45:42.381Z,97609.69
2023-04-18T13:48:09.235Z,97616.94
2023-04-18T13:50:36.111Z,97614.44
2023-04-18T13:53:02.876Z,97617.25
2023-04-18T13:55:29.611Z,97619.19
2023-04-18T13:57:56.390Z,97617.53
2023-04-18T14:00:23.330Z,97620.19
2023-04-18T14:02:50.715Z,97621.16
2023-04-18T14:05:17.851Z,97625.47
2023-04-18T14:07:44.705Z,97619.50
2023-04-18T14:10:11.601Z,97622.13
2023-04-18T14:12:38.343Z,97620.47
2023-04-18T14:15:05.712Z,97625.91
2023-04-18T14:17:32.458Z,97621.59
2023-04-18T14:20:09.004Z,97628.72
2023-04-18T14:22:36.213Z,97627.88
2023-04-18T14:25:03.063Z,97630.38
2023-04-18T14:27:29.922Z,97628.56
2023-04-18T14:29:56.849Z,97629.41
2023-04-18T14:32:23.763Z,97629.41
2023-04-18T14:34:50.622Z,97632.06
2023-04-18T14:37:17.837Z,97624.78
2023-04-18T14:39:44.778Z,97630.09
2023-04-18T14:42:11.597Z,97619.34
2023-04-18T14:44:38.315Z,97620.19
2023-04-18T14:47:05.174Z,97629.66
2023-04-18T14:49:32.242Z,97623.38
2023-04-18T14:51:59.174Z,97621.72
2023-04-18T14:54:26.091Z,97622.53
2023-04-18T14:56:53.019Z,97617.53
2023-04-18T14:59:20.174Z,97621.84
2023-04-18T15:01:47.161Z,97635.25
2023-04-18T15:04:14.345Z,97629.94
2023-04-18T15:06:41.659Z,97630.09
2023-04-18T15:09:08.544Z,97628.28
2023-04-18T15:11:35.297Z,97630.94
2023-04-18T15:14:02.122Z,97633.72
2023-04-18T15:16:28.932Z,97632.06
2023-04-18T15:18:55.945Z,97636.53
2023-04-18T15:21:22.870Z,97630.38
2023-04-18T15:23:52.441Z,97634.03
2023-04-18T15:26:19.417Z,97640.16
2023-04-18T15:28:46.804Z,97634.03
2023-04-18T15:31:14.567Z,97637.66
2023-04-18T15:33:41.372Z,97638.63
2023-04-18T15:36:09.057Z,97643.94
2023-04-18T15:38:35.983Z,97639.59
2023-04-18T15:41:02.783Z,97644.91
2023-04-18T15:43:29.524Z,97629.00
2023-04-18T15:45:56.351Z,97640.44
2023-04-18T15:48:23.415Z,97639.75
2023-04-18T15:50:53.473Z,97645.19
2023-04-18T15:53:20.294Z,97644.22
2023-04-18T15:55:47.140Z,97645.19
2023-04-18T15:58:13.877Z,97646.03
2023-04-18T16:00:40.576Z,97639.91
2023-04-18T16:03:10.089Z,97644.38
2023-04-18T16:05:37.028Z,97650.50
2023-04-18T16:08:03.854Z,97652.47
2023-04-18T16:10:31.133Z,97666.69
2023-04-18T16:13:00.793Z,97656.94
2023-04-18T16:15:27.576Z,97656.25
2023-04-18T16:17:54.756Z,97660.69
2023-04-18T16:20:21.625Z,97659.88
2023-04-18T16:22:48.371Z,97659.88
2023-04-18T16:25:15.169Z,97666.16
2023-04-18T16:27:42.800Z,97665.16
2023-04-18T16:30:12.968Z,97665.16
2023-04-18T16:32:39.749Z,97666.00
2023-04-18T16:35:10.332Z,97669.63
2023-04-18T16:37:41.074Z,97665.31
2023-04-18T16:40:10.304Z,97674.09
2023-04-18T16:42:44.545Z,97671.44
2023-04-18T16:45:11.404Z,97679.56
2023-04-18T16:47:38.245Z,97674.09
2023-04-18T16:50:06.080Z,97679.56
2023-04-18T16:52:32.904Z,97679.56
2023-04-18T16:54:59.634Z,97681.22
2023-04-18T16:57:26.566Z,97683.03
2023-04-18T16:59:53.378Z,97684.84
2023-04-18T17:02:20.310Z,97689.31
2023-04-18T17:04:47.662Z,97688.47
2023-04-18T17:07:14.440Z,97692.13
2023-04-18T17:09:41.589Z,97698.25
2023-04-18T17:12:08.410Z,97696.56
2023-04-18T17:14:37.219Z,97701.03
2023-04-18T17:17:04.429Z,97698.53
2023-04-18T17:19:32.726Z,97709.28
2023-04-18T17:21:59.418Z,97707.59
2023-04-18T17:24:26.140Z,97707.59
2023-04-18T17:26:53.162Z,97704.13
2023-04-18T17:29:20.168Z,97699.78
2023-04-18T17:31:46.912Z,97709.56
2023-04-18T17:34:13.721Z,97705.25
2023-04-18T17:36:40.722Z,97703.59
2023-04-18T17:39:07.589Z,97708.06
2023-04-18T17:41:38.953Z,97712.53
2023-04-18T17:44:07.743Z,97707.22
2023-04-18T17:46:34.608Z,97716.84
2023-04-18T17:49:01.480Z,97713.50
2023-04-18T17:51:28.224Z,97714.47
2023-04-18T17:53:55.326Z,97718.94
2023-04-18T17:56:22.681Z,97718.09
2023-04-18T17:58:49.750Z,97716.44
2023-04-18T18:01:18.889Z,97720.06
2023-04-18T18:03:47.275Z,97720.91
2023-04-18T18:06:15.184Z,97727.03
2023-04-18T18:08:43.781Z,97728.16
2023-04-18T18:11:11.108Z,97734.28
2023-04-18T18:13:39.259Z,97728.16
2023-04-18T18:16:07.204Z,97726.63
2023-04-18T18:18:34.012Z,97732.63
2023-04-18T18:21:00.820Z,97730.94
2023-04-18T18:23:27.672Z,97731.91
2023-04-18T18:25:54.495Z,97739.03
2023-04-18T18:28:21.665Z,97745.16
2023-04-18T18:30:48.488Z,97740.72
2023-04-18T18:33:15.326Z,97747.97
2023-04-18T18:35:42.038Z,97756.75
2023-04-18T18:38:08.845Z,97754.25
2023-04-18T18:40:38.377Z,97761.34
2023-04-18T18:43:05.099Z,97757.88
2023-04-18T18:45:31.929Z,97761.34
2023-04-18T18:47:58.701Z,97763.16
2023-04-18T18:50:25.470Z,97762.34
2023-04-18T18:52:52.244Z,97768.59
2023-04-18T18:55:19.165Z,97771.25
2023-04-18T18:57:46.111Z,97772.19
2023-04-18T19:00:13.613Z,97767.88
2023-04-18T19:02:40.606Z,97776.66
2023-04-18T19:05:07.720Z,97773.31
2023-04-18T19:07:34.457Z,97774.00
2023-04-18T19:10:01.921Z,97771.38
2023-04-18T19:12:29.430Z,97775.97
2023-04-18T19:14:56.294Z,97776.81
2023-04-18T19:17:24.927Z,97783.91
2023-04-18T19:19:53.239Z,97774.28
2023-04-18T19:22:19.982Z,97777.78
2023-04-18T19:24:47.159Z,97785.72
2023-04-18T19:27:13.857Z,97783.06
2023-04-18T19:29:41.118Z,97788.38
2023-04-18T19:32:07.883Z,97793.81
2023-04-18T19:34:34.642Z,97785.88
2023-04-18T19:37:01.533Z,97786.69
2023-04-18T19:39:28.578Z,97794.94
2023-04-18T19:41:55.358Z,97788.94
2023-04-18T19:44:22.119Z,97789.75
2023-04-18T19:46:48.875Z,97782.78
2023-04-18T19:49:16.096Z,97780.13
2023-04-18T19:51:42.962Z,97792.56
2023-04-18T19:54:09.729Z,97786.28
2023-04-18T19:56:36.544Z,97777.63
2023-04-18T19:59:06.113Z,97780.28
2023-04-18T20:01:32.956Z,97774.97
2023-04-18T20:04:00.905Z,97788.38
2023-04-18T20:06:28.194Z,97789.34
2023-04-18T20:08:55.387Z,97790.16
2023-04-18T20:11:22.414Z,97792.81
2023-04-18T20:13:49.565Z,97786.53
2023-04-18T20:16:17.071Z,97794.63
2023-04-18T20:18:44.516Z,97791.16
2023-04-18T20:21:11.502Z,97789.47
2023-04-18T20:23:39.601Z,97785.16
2023-04-18T20:26:06.831Z,97789.47
2023-04-18T20:28:33.810Z,97786.97
2023-04-18T20:31:01.652Z,97784.44
2023-04-18T20:33:28.364Z,97786.97
2023-04-18T20:35:55.105Z,97783.59
2023-04-18T20:38:26.152Z,97784.44
2023-04-18T20:40:54.415Z,97786.25
2023-04-18T20:43:21.580Z,97784.59
2023-04-18T20:45:51.209Z,97780.13
2023-04-18T20:48:18.759Z,97778.44
2023-04-18T20:50:51.316Z,97778.44
2023-04-18T20:53:22.549Z,97782.06
2023-04-18T20:55:49.577Z,97783.88
2023-04-18T20:58:16.357Z,97778.59
2023-04-18T21:00:44.769Z,97776.78
2023-04-18T21:03:15.359Z,97775.09
2023-04-18T21:05:43.375Z,97776.91
2023-04-18T21:08:11.244Z,97776.06
2023-04-18T21:10:38.068Z,97774.41
2023-04-18T21:13:04.795Z,97771.88
2023-04-18T21:15:31.554Z,97773.56
2023-04-18T21:17:58.273Z,97774.41
2023-04-18T21:20:25.120Z,97772.84
2023-04-18T21:22:51.822Z,97775.38
2023-04-18T21:25:20.584Z,97776.34
2023-04-18T21:27:47.359Z,97773.69
2023-04-18T21:30:14.118Z,97771.88
2023-04-18T21:32:40.827Z,97779.84
2023-04-18T21:35:07.790Z,97777.31
2023-04-18T21:37:34.546Z,97780.81
2023-04-18T21:40:01.778Z,97780.94
2023-04-18T21:42:28.506Z,97780.09
2023-04-18T21:44:55.217Z,97774.09
2023-04-18T21:47:22.275Z,97774.94
2023-04-18T21:49:49.517Z,97778.44
2023-04-18T21:52:16.226Z,97770.63
2023-04-18T21:54:42.944Z,97771.31
2023-04-18T21:57:09.653Z,97769.78
2023-04-18T21:59:36.381Z,97770.63
2023-04-18T22:02:03.216Z,97776.88
2023-04-18T22:04:30.008Z,97775.22
2023-04-18T22:06:57.063Z,97776.88
2023-04-18T22:09:23.772Z,97777.84
2023-04-18T22:11:57.039Z,97775.47
2023-04-18T22:14:25.004Z,97767.41
2023-04-18T22:16:51.927Z,97771.03
2023-04-18T22:19:19.411Z,97768.50
2023-04-18T22:21:46.834Z,97778.97
2023-04-18T22:24:13.694Z,97765.88
2023-04-18T22:26:41.046Z,97770.19
2023-04-18T22:29:07.801Z,97761.53
2023-04-18T22:31:34.553Z,97761.53
2023-04-18T22:34:01.300Z,97762.50
2023-04-18T22:36:28.067Z,97764.31
2023-04-18T22:38:54.905Z,97764.19
2023-04-18T22:41:21.715Z,97765.16
2023-04-18T22:43:48.415Z,97762.50
2023-04-18T22:46:15.301Z,97763.63
2023-04-18T22:48:42.437Z,97755.69
2023-04-18T22:51:09.132Z,97760.13
2023-04-18T22:53:36.024Z,97763.75
2023-04-18T22:56:02.726Z,97757.50
2023-04-18T22:58:29.916Z,97763.06
2023-04-18T23:00:56.625Z,97748.97
2023-04-18T23:03:23.589Z,97756.09
2023-04-18T23:05:50.482Z,97753.44
2023-04-18T23:08:18.928Z,97758.72
2023-04-18T23:10:45.665Z,97757.91
2023-04-18T23:13:14.519Z,97758.03
2023-04-18T23:15:41.314Z,97765.13
2023-04-18T23:18:08.430Z,97761.66
2023-04-18T23:20:36.503Z,97759.00
2023-04-18T23:23:03.298Z,97755.50
2023-04-18T23:25:33.402Z,97750.34
2023-04-18T23:28:00.397Z,97755.66
2023-04-18T23:30:27.126Z,97749.38
2023-04-18T23:32:54.125Z,97745.06
2023-04-18T23:35:20.920Z,97747.56
2023-04-18T23:37:47.710Z,97748.41
2023-04-18T23:40:14.795Z,97747.72
2023-04-18T23:42:42.262Z,97742.41
2023-04-18T23:45:09.235Z,97747.72
2023-04-18T23:47:36.035Z,97744.34
2023-04-18T23:50:02.846Z,97746.16
2023-04-18T23:52:29.613Z,97737.38
2023-04-18T23:55:00.772Z,97741.84
2023-04-18T23:57:27.570Z,97734.59
2023-04-18T23:59:54.236Z,97730.41
